sensor_id;sensor_type;location;lat;lon;timestamp;pressure;altitude;pressure_sealevel;temperature;humidity
25610;BME280;13479;49.044;8.716;2023-01-31T05:00:37;100214.16;;;1.65;85.60
25610;BME280;13479;49.044;8.716;2023-01-31T05:03:03;100220.34;;;1.62;85.54
25610;BME280;13479;49.044;8.716;2023-01-31T05:05:28;100221.38;;;1.57;85.43
25610;BME280;13479;49.044;8.716;2023-01-31T05:07:53;100217.19;;;1.51;85.59
25610;BME280;13479;49.044;8.716;2023-01-31T05:10:19;100216.41;;;1.47;85.31
25610;BME280;13479;49.044;8.716;2023-01-31T05:12:45;100226.81;;;1.50;84.93
25610;BME280;13479;49.044;8.716;2023-01-31T05:15:11;100243.22;;;1.56;84.61
25610;BME280;13479;49.044;8.716;2023-01-31T05:17:36;100250.66;;;1.39;84.22
25610;BME280;13479;49.044;8.716;2023-01-31T05:20:02;100230.94;;;1.28;84.50
25610;BME280;13479;49.044;8.716;2023-01-31T05:22:28;100213.59;;;1.23;84.36
25610;BME280;13479;49.044;8.716;2023-01-31T05:24:53;100213.56;;;1.25;84.38
25610;BME280;13479;49.044;8.716;2023-01-31T05:27:18;100221.53;;;1.20;84.24
25610;BME280;13479;49.044;8.716;2023-01-31T05:29:44;100216.63;;;1.10;84.38
25610;BME280;13479;49.044;8.716;2023-01-31T05:32:10;100215.06;;;1.02;84.50
25610;BME280;13479;49.044;8.716;2023-01-31T05:34:36;100216.06;;;0.97;84.56
25610;BME280;13479;49.044;8.716;2023-01-31T05:37:02;100208.09;;;1.03;84.70
25610;BME280;13479;49.044;8.716;2023-01-31T05:39:27;100214.13;;;1.05;84.34
25610;BME280;13479;49.044;8.716;2023-01-31T05:41:53;100206.44;;;0.99;84.97
25610;BME280;13479;49.044;8.716;2023-01-31T05:44:18;100213.69;;;1.20;84.17
25610;BME280;13479;49.044;8.716;2023-01-31T05:46:44;100232.44;;;1.05;84.29
25610;BME280;13479;49.044;8.716;2023-01-31T05:49:10;100220.41;;;0.98;84.49
25610;BME280;13479;49.044;8.716;2023-01-31T05:51:35;100214.47;;;0.92;84.50
25610;BME280;13479;49.044;8.716;2023-01-31T05:54:01;100203.75;;;1.02;84.43
25610;BME280;13479;49.044;8.716;2023-01-31T05:56:26;100192.31;;;1.06;84.89
25610;BME280;13479;49.044;8.716;2023-01-31T05:58:51;100178.44;;;1.02;85.16
25610;BME280;13479;49.044;8.716;2023-01-31T06:01:18;100167.09;;;1.03;85.65
25610;BME280;13479;49.044;8.716;2023-01-31T06:03:43;100174.84;;;1.06;86.22
25610;BME280;13479;49.044;8.716;2023-01-31T06:06:09;100199.13;;;1.12;86.78
25610;BME280;13479;49.044;8.716;2023-01-31T06:08:34;100211.88;;;1.22;86.27
25610;BME280;13479;49.044;8.716;2023-01-31T06:11:03;100229.16;;;1.28;86.86
25610;BME280;13479;49.044;8.716;2023-01-31T06:13:29;100233.22;;;1.40;87.03
25610;BME280;13479;49.044;8.716;2023-01-31T06:15:55;100233.75;;;1.51;86.90
25610;BME280;13479;49.044;8.716;2023-01-31T06:18:20;100256.22;;;1.59;86.91
25610;BME280;13479;49.044;8.716;2023-01-31T06:20:45;100246.16;;;1.75;87.22
25610;BME280;13479;49.044;8.716;2023-01-31T06:23:10;100258.97;;;1.84;86.96
25610;BME280;13479;49.044;8.716;2023-01-31T06:25:36;100255.38;;;1.87;86.71
25610;BME280;13479;49.044;8.716;2023-01-31T06:28:01;100274.97;;;2.03;86.44
25610;BME280;13479;49.044;8.716;2023-01-31T06:30:26;100284.84;;;1.95;86.38
25610;BME280;13479;49.044;8.716;2023-01-31T06:32:51;100275.56;;;2.13;85.76
25610;BME280;13479;49.044;8.716;2023-01-31T06:35:17;100275.97;;;1.99;86.40
25610;BME280;13479;49.044;8.716;2023-01-31T06:37:42;100277.53;;;2.06;86.08
25610;BME280;13479;49.044;8.716;2023-01-31T06:40:08;100286.94;;;2.12;85.82
25610;BME280;13479;49.044;8.716;2023-01-31T06:42:33;100281.72;;;2.12;85.86
25610;BME280;13479;49.044;8.716;2023-01-31T06:44:58;100280.31;;;2.28;85.25
25610;BME280;13479;49.044;8.716;2023-01-31T06:47:24;100281.41;;;2.21;85.45
25610;BME280;13479;49.044;8.716;2023-01-31T06:49:49;100271.59;;;2.28;85.85
25610;BME280;13479;49.044;8.716;2023-01-31T06:52:14;100272.22;;;2.36;85.82
25610;BME280;13479;49.044;8.716;2023-01-31T06:54:39;100291.78;;;2.53;85.79
25610;BME280;13479;49.044;8.716;2023-01-31T06:57:05;100296.59;;;2.65;85.40
25610;BME280;13479;49.044;8.716;2023-01-31T06:59:30;100301.44;;;2.77;84.19
25610;BME280;13479;49.044;8.716;2023-01-31T07:01:56;100297.91;;;2.78;83.45
25610;BME280;13479;49.044;8.716;2023-01-31T07:04:21;100285.44;;;2.87;82.55
25610;BME280;13479;49.044;8.716;2023-01-31T07:06:46;100278.25;;;2.92;82.00
25610;BME280;13479;49.044;8.716;2023-01-31T07:09:11;100259.22;;;2.85;82.07
25610;BME280;13479;49.044;8.716;2023-01-31T07:11:37;100229.41;;;2.88;82.49
25610;BME280;13479;49.044;8.716;2023-01-31T07:14:03;100223.97;;;2.94;82.28
25610;BME280;13479;49.044;8.716;2023-01-31T07:16:28;100224.53;;;3.02;81.58
25610;BME280;13479;49.044;8.716;2023-01-31T07:18:54;100223.63;;;3.03;81.75
25610;BME280;13479;49.044;8.716;2023-01-31T07:21:20;100206.97;;;3.04;81.62
25610;BME280;13479;49.044;8.716;2023-01-31T07:23:46;100198.09;;;3.08;81.39
25610;BME280;13479;49.044;8.716;2023-01-31T07:26:11;100185.44;;;3.20;81.88
25610;BME280;13479;49.044;8.716;2023-01-31T07:28:36;100180.19;;;3.20;81.96
25610;BME280;13479;49.044;8.716;2023-01-31T07:31:06;100165.09;;;3.25;81.81
25610;BME280;13479;49.044;8.716;2023-01-31T07:33:32;100189.19;;;3.36;81.12
25610;BME280;13479;49.044;8.716;2023-01-31T07:36:00;100208.09;;;3.46;81.06
25610;BME280;13479;49.044;8.716;2023-01-31T07:38:25;100216.69;;;3.50;80.00
25610;BME280;13479;49.044;8.716;2023-01-31T07:40:51;100209.47;;;3.55;79.43
25610;BME280;13479;49.044;8.716;2023-01-31T07:43:16;100198.97;;;3.55;79.28
25610;BME280;13479;49.044;8.716;2023-01-31T07:45:42;100190.31;;;3.53;78.82
25610;BME280;13479;49.044;8.716;2023-01-31T07:48:07;100165.41;;;3.63;79.03
25610;BME280;13479;49.044;8.716;2023-01-31T07:50:32;100169.31;;;3.75;78.26
25610;BME280;13479;49.044;8.716;2023-01-31T07:52:57;100166.50;;;3.80;78.10
25610;BME280;13479;49.044;8.716;2023-01-31T07:55:23;100147.94;;;3.84;77.66
25610;BME280;13479;49.044;8.716;2023-01-31T07:57:48;100164.38;;;3.90;77.66
25610;BME280;13479;49.044;8.716;2023-01-31T08:00:14;100150.13;;;3.95;77.27
25610;BME280;13479;49.044;8.716;2023-01-31T08:02:58;100146.28;;;4.04;76.81
25610;BME280;13479;49.044;8.716;2023-01-31T08:05:45;100184.34;;;4.16;75.63
25610;BME280;13479;49.044;8.716;2023-01-31T08:08:10;100167.25;;;4.06;75.84
25610;BME280;13479;49.044;8.716;2023-01-31T08:10:35;100151.28;;;4.10;75.14
25610;BME280;13479;49.044;8.716;2023-01-31T08:13:01;100132.94;;;4.09;75.63
25610;BME280;13479;49.044;8.716;2023-01-31T08:15:26;100116.28;;;4.10;75.13
25610;BME280;13479;49.044;8.716;2023-01-31T08:17:51;100105.00;;;4.06;75.51
25610;BME280;13479;49.044;8.716;2023-01-31T08:20:17;100099.44;;;4.14;75.75
25610;BME280;13479;49.044;8.716;2023-01-31T08:22:43;100099.97;;;4.22;75.67
25610;BME280;13479;49.044;8.716;2023-01-31T08:25:08;100119.31;;;4.21;74.88
25610;BME280;13479;49.044;8.716;2023-01-31T08:27:35;100137.34;;;4.29;74.85
25610;BME280;13479;49.044;8.716;2023-01-31T08:30:00;100154.66;;;4.35;74.00
25610;BME280;13479;49.044;8.716;2023-01-31T08:32:25;100148.47;;;4.36;73.80
25610;BME280;13479;49.044;8.716;2023-01-31T08:34:51;100133.16;;;4.45;73.52
25610;BME280;13479;49.044;8.716;2023-01-31T08:37:16;100163.59;;;4.51;72.59
25610;BME280;13479;49.044;8.716;2023-01-31T08:39:41;100145.66;;;4.40;73.24
25610;BME280;13479;49.044;8.716;2023-01-31T08:42:08;100150.59;;;4.48;72.60
25610;BME280;13479;49.044;8.716;2023-01-31T08:44:33;100162.03;;;4.47;72.49
25610;BME280;13479;49.044;8.716;2023-01-31T08:46:58;100167.16;;;4.50;71.82
25610;BME280;13479;49.044;8.716;2023-01-31T08:49:26;100145.72;;;4.39;71.92
25610;BME280;13479;49.044;8.716;2023-01-31T08:51:51;100122.34;;;4.32;72.12
25610;BME280;13479;49.044;8.716;2023-01-31T08:54:16;100100.31;;;4.35;71.70
25610;BME280;13479;49.044;8.716;2023-01-31T08:56:41;100103.06;;;4.32;72.29
25610;BME280;13479;49.044;8.716;2023-01-31T08:59:07;100104.97;;;4.49;71.75
25610;BME280;13479;49.044;8.716;2023-01-31T09:01:32;100135.28;;;4.58;71.17
25610;BME280;13479;49.044;8.716;2023-01-31T09:03:59;100137.91;;;4.58;70.77
25610;BME280;13479;49.044;8.716;2023-01-31T09:06:25;100110.47;;;4.63;70.60
25610;BME280;13479;49.044;8.716;2023-01-31T09:08:51;100120.78;;;4.68;70.78
25610;BME280;13479;49.044;8.716;2023-01-31T09:11:17;100124.06;;;4.73;70.13
25610;BME280;13479;49.044;8.716;2023-01-31T09:13:44;100117.63;;;4.81;70.41
25610;BME280;13479;49.044;8.716;2023-01-31T09:16:11;100100.56;;;4.89;70.22
25610;BME280;13479;49.044;8.716;2023-01-31T09:18:38;100127.81;;;5.07;69.33
25610;BME280;13479;49.044;8.716;2023-01-31T09:21:06;100162.19;;;5.43;68.72
25610;BME280;13479;49.044;8.716;2023-01-31T09:23:32;100141.69;;;5.30;67.87
25610;BME280;13479;49.044;8.716;2023-01-31T09:25:57;100156.09;;;5.42;67.28
25610;BME280;13479;49.044;8.716;2023-01-31T09:28:23;100157.72;;;5.45;66.06
25610;BME280;13479;49.044;8.716;2023-01-31T09:30:49;100109.13;;;5.33;67.09
25610;BME280;13479;49.044;8.716;2023-01-31T09:33:15;100093.16;;;5.36;66.37
25610;BME280;13479;49.044;8.716;2023-01-31T09:35:40;100098.41;;;5.36;65.94
25610;BME280;13479;49.044;8.716;2023-01-31T09:38:05;100057.59;;;5.27;66.83
25610;BME280;13479;49.044;8.716;2023-01-31T09:40:33;100035.63;;;5.46;66.16
25610;BME280;13479;49.044;8.716;2023-01-31T09:43:01;100078.19;;;5.55;65.60
25610;BME280;13479;49.044;8.716;2023-01-31T09:45:30;100080.53;;;5.62;65.26
25610;BME280;13479;49.044;8.716;2023-01-31T09:47:58;100052.00;;;5.52;65.95
25610;BME280;13479;49.044;8.716;2023-01-31T09:50:35;100031.75;;;5.53;65.74
25610;BME280;13479;49.044;8.716;2023-01-31T09:53:04;100049.00;;;5.60;65.35
25610;BME280;13479;49.044;8.716;2023-01-31T09:55:56;100067.25;;;5.46;64.61
25610;BME280;13479;49.044;8.716;2023-01-31T09:58:37;100043.44;;;5.47;65.04
25610;BME280;13479;49.044;8.716;2023-01-31T10:01:17;100062.38;;;5.55;65.16
25610;BME280;13479;49.044;8.716;2023-01-31T10:06:49;100059.81;;;5.54;64.81
25610;BME280;13479;49.044;8.716;2023-01-31T10:09:27;100018.56;;;5.35;64.99
25610;BME280;13479;49.044;8.716;2023-01-31T10:11:56;99996.03;;;5.47;64.92
25610;BME280;13479;49.044;8.716;2023-01-31T10:14:41;100007.59;;;5.45;64.75
25610;BME280;13479;49.044;8.716;2023-01-31T10:19:59;99971.81;;;5.58;65.36
25610;BME280;13479;49.044;8.716;2023-01-31T10:22:46;99989.00;;;5.65;64.89
25610;BME280;13479;49.044;8.716;2023-01-31T10:25:32;99993.09;;;5.71;64.93
25610;BME280;13479;49.044;8.716;2023-01-31T10:28:03;100018.72;;;6.22;64.42
25610;BME280;13479;49.044;8.716;2023-01-31T10:30:43;100103.50;;;7.79;61.54
25610;BME280;13479;49.044;8.716;2023-01-31T10:33:24;100074.91;;;9.32;58.04
25610;BME280;13479;49.044;8.716;2023-01-31T10:35:55;100041.63;;;9.82;55.15
25610;BME280;13479;49.044;8.716;2023-01-31T10:38:34;100021.28;;;9.55;53.87
25610;BME280;13479;49.044;8.716;2023-01-31T10:41:12;100008.97;;;9.27;54.00
25610;BME280;13479;49.044;8.716;2023-01-31T10:43:44;100020.97;;;9.05;54.23
25610;BME280;13479;49.044;8.716;2023-01-31T10:46:11;99999.44;;;8.83;54.29
25610;BME280;13479;49.044;8.716;2023-01-31T10:48:38;99988.56;;;8.73;54.27
25610;BME280;13479;49.044;8.716;2023-01-31T10:51:26;99974.50;;;8.58;54.65
25610;BME280;13479;49.044;8.716;2023-01-31T10:56:52;99983.69;;;10.02;52.28
25610;BME280;13479;49.044;8.716;2023-01-31T10:59:32;100003.69;;;10.96;49.67
25610;BME280;13479;49.044;8.716;2023-01-31T11:02:00;100003.25;;;12.11;47.86
25610;BME280;13479;49.044;8.716;2023-01-31T11:04:29;100026.38;;;12.90;45.37
25610;BME280;13479;49.044;8.716;2023-01-31T11:06:57;100038.63;;;13.59;43.22
25610;BME280;13479;49.044;8.716;2023-01-31T11:09:26;100048.72;;;14.10;41.40
25610;BME280;13479;49.044;8.716;2023-01-31T11:11:59;100051.56;;;14.39;40.19
25610;BME280;13479;49.044;8.716;2023-01-31T11:14:25;100059.53;;;14.81;39.27
25610;BME280;13479;49.044;8.716;2023-01-31T11:16:56;100047.75;;;14.63;39.44
25610;BME280;13479;49.044;8.716;2023-01-31T11:19:43;100045.06;;;13.89;40.25
25610;BME280;13479;49.044;8.716;2023-01-31T11:22:23;100055.19;;;13.31;40.71
25610;BME280;13479;49.044;8.716;2023-01-31T11:24:50;100038.66;;;12.59;41.90
25610;BME280;13479;49.044;8.716;2023-01-31T11:27:25;100000.97;;;12.29;43.17
25610;BME280;13479;49.044;8.716;2023-01-31T11:29:51;99961.19;;;11.92;43.55
25610;BME280;13479;49.044;8.716;2023-01-31T11:32:21;99946.97;;;11.33;44.74
25610;BME280;13479;49.044;8.716;2023-01-31T11:37:28;99894.09;;;10.44;46.96
25610;BME280;13479;49.044;8.716;2023-01-31T11:39:59;99867.50;;;10.07;47.65
25610;BME280;13479;49.044;8.716;2023-01-31T11:42:25;99870.16;;;9.81;48.33
25610;BME280;13479;49.044;8.716;2023-01-31T11:45:03;99844.59;;;9.41;48.97
25610;BME280;13479;49.044;8.716;2023-01-31T11:47:48;99835.22;;;9.10;49.80
25610;BME280;13479;49.044;8.716;2023-01-31T11:52:56;99795.53;;;9.23;50.15
25610;BME280;13479;49.044;8.716;2023-01-31T11:55:22;99791.38;;;9.19;50.18
25610;BME280;13479;49.044;8.716;2023-01-31T11:57:55;99788.72;;;9.06;50.23
25610;BME280;13479;49.044;8.716;2023-01-31T12:00:23;99792.19;;;8.93;50.16
25610;BME280;13479;49.044;8.716;2023-01-31T12:03:13;99781.66;;;8.79;50.77
25610;BME280;13479;49.044;8.716;2023-01-31T12:05:42;99770.00;;;8.69;51.00
25610;BME280;13479;49.044;8.716;2023-01-31T12:08:27;99761.19;;;8.41;51.78
25610;BME280;13479;49.044;8.716;2023-01-31T12:10:53;99771.59;;;8.29;51.85
25610;BME280;13479;49.044;8.716;2023-01-31T12:13:20;99747.13;;;8.13;52.76
25610;BME280;13479;49.044;8.716;2023-01-31T12:16:02;99751.06;;;8.06;52.69
25610;BME280;13479;49.044;8.716;2023-01-31T12:26:35;99739.81;;;7.60;52.79
25610;BME280;13479;49.044;8.716;2023-01-31T12:29:20;99737.22;;;7.46;53.50
25610;BME280;13479;49.044;8.716;2023-01-31T12:32:20;99728.72;;;7.26;54.39
25610;BME280;13479;49.044;8.716;2023-01-31T12:38:10;99732.84;;;7.30;54.58
25610;BME280;13479;49.044;8.716;2023-01-31T12:40:51;99729.75;;;7.38;54.62
25610;BME280;13479;49.044;8.716;2023-01-31T12:46:40;99761.66;;;7.64;53.03
25610;BME280;13479;49.044;8.716;2023-01-31T12:52:08;99756.66;;;7.59;53.20
25610;BME280;13479;49.044;8.716;2023-01-31T12:57:51;99791.38;;;7.53;52.72
25610;BME280;13479;49.044;8.716;2023-01-31T13:00:34;99778.13;;;7.38;53.05
25610;BME280;13479;49.044;8.716;2023-01-31T13:03:19;99726.75;;;7.30;53.41
25610;BME280;13479;49.044;8.716;2023-01-31T13:05:56;99737.94;;;7.19;53.81
25610;BME280;13479;49.044;8.716;2023-01-31T13:08:26;99727.47;;;7.17;53.47
25610;BME280;13479;49.044;8.716;2023-01-31T13:11:05;99700.94;;;7.04;54.15
25610;BME280;13479;49.044;8.716;2023-01-31T13:13:37;99673.25;;;6.97;54.74
25610;BME280;13479;49.044;8.716;2023-01-31T13:16:28;99673.25;;;6.97;54.91
25610;BME280;13479;49.044;8.716;2023-01-31T13:18:57;99693.78;;;7.06;54.27
25610;BME280;13479;49.044;8.716;2023-01-31T13:21:32;99711.91;;;7.13;54.05
25610;BME280;13479;49.044;8.716;2023-01-31T13:24:02;99718.50;;;7.20;53.65
25610;BME280;13479;49.044;8.716;2023-01-31T13:26:34;99710.59;;;7.20;53.91
25610;BME280;13479;49.044;8.716;2023-01-31T13:29:09;99731.16;;;7.29;53.70
25610;BME280;13479;49.044;8.716;2023-01-31T13:31:43;99723.50;;;7.24;53.67
25610;BME280;13479;49.044;8.716;2023-01-31T13:34:40;99716.53;;;7.23;53.73
25610;BME280;13479;49.044;8.716;2023-01-31T13:37:13;99716.25;;;7.28;53.51
25610;BME280;13479;49.044;8.716;2023-01-31T13:39:49;99734.84;;;7.26;53.47
25610;BME280;13479;49.044;8.716;2023-01-31T13:42:15;99743.81;;;7.24;53.52
25610;BME280;13479;49.044;8.716;2023-01-31T13:44:42;99738.88;;;7.18;53.43
25610;BME280;13479;49.044;8.716;2023-01-31T13:47:22;99727.97;;;7.24;53.54
25610;BME280;13479;49.044;8.716;2023-01-31T13:49:54;99731.72;;;7.20;53.21
25610;BME280;13479;49.044;8.716;2023-01-31T13:52:26;99723.59;;;7.08;53.65
25610;BME280;13479;49.044;8.716;2023-01-31T13:55:07;99676.25;;;7.05;54.35
25610;BME280;13479;49.044;8.716;2023-01-31T13:57:42;99657.22;;;7.00;54.37
25610;BME280;13479;49.044;8.716;2023-01-31T14:00:42;99651.34;;;6.95;54.81
25610;BME280;13479;49.044;8.716;2023-01-31T14:03:13;99630.16;;;6.97;54.44
25610;BME280;13479;49.044;8.716;2023-01-31T14:13:43;99579.81;;;6.71;55.76
25610;BME280;13479;49.044;8.716;2023-01-31T14:16:41;99592.44;;;6.80;55.65
25610;BME280;13479;49.044;8.716;2023-01-31T14:24:19;99584.81;;;6.75;56.03
25610;BME280;13479;49.044;8.716;2023-01-31T14:29:17;99602.44;;;6.75;56.31
25610;BME280;13479;49.044;8.716;2023-01-31T14:31:44;99605.47;;;6.83;56.00
25610;BME280;13479;49.044;8.716;2023-01-31T14:34:27;99617.13;;;6.79;56.08
25610;BME280;13479;49.044;8.716;2023-01-31T14:37:46;99631.66;;;6.72;56.85
25610;BME280;13479;49.044;8.716;2023-01-31T14:43:12;99620.91;;;6.75;57.52
25610;BME280;13479;49.044;8.716;2023-01-31T14:49:04;99609.13;;;6.66;57.01
25610;BME280;13479;49.044;8.716;2023-01-31T14:51:57;99617.31;;;6.61;57.54
25610;BME280;13479;49.044;8.716;2023-01-31T14:57:11;99623.81;;;6.70;57.98
25610;BME280;13479;49.044;8.716;2023-01-31T15:05:09;99612.81;;;6.63;58.27
25610;BME280;13479;49.044;8.716;2023-01-31T15:07:35;99607.97;;;6.70;57.87
25610;BME280;13479;49.044;8.716;2023-01-31T15:10:01;99612.59;;;6.67;58.19
25610;BME280;13479;49.044;8.716;2023-01-31T15:12:56;99616.66;;;6.58;58.26
25610;BME280;13479;49.044;8.716;2023-01-31T15:15:33;99618.34;;;6.73;58.62
25610;BME280;13479;49.044;8.716;2023-01-31T15:18:18;99636.28;;;6.68;58.28
25610;BME280;13479;49.044;8.716;2023-01-31T15:20:50;99613.16;;;6.57;58.82
25610;BME280;13479;49.044;8.716;2023-01-31T15:23:21;99621.19;;;6.56;58.95
25610;BME280;13479;49.044;8.716;2023-01-31T15:25:48;99621.19;;;6.56;58.99
25610;BME280;13479;49.044;8.716;2023-01-31T15:28:17;99619.03;;;6.62;58.84
25610;BME280;13479;49.044;8.716;2023-01-31T15:30:45;99622.00;;;6.56;58.83
25610;BME280;13479;49.044;8.716;2023-01-31T15:33:15;99606.47;;;6.52;59.58
25610;BME280;13479;49.044;8.716;2023-01-31T15:35:51;99620.13;;;6.58;58.79
25610;BME280;13479;49.044;8.716;2023-01-31T15:38:23;99634.38;;;6.56;58.87
25610;BME280;13479;49.044;8.716;2023-01-31T15:41:16;99630.88;;;6.55;59.48
25610;BME280;13479;49.044;8.716;2023-01-31T15:43:42;99627.28;;;6.56;59.26
25610;BME280;13479;49.044;8.716;2023-01-31T15:48:43;99648.41;;;6.56;58.85
25610;BME280;13479;49.044;8.716;2023-01-31T15:51:11;99643.28;;;6.53;59.55
25610;BME280;13479;49.044;8.716;2023-01-31T15:53:38;99630.59;;;6.45;59.49
25610;BME280;13479;49.044;8.716;2023-01-31T15:56:05;99628.88;;;6.44;59.68
25610;BME280;13479;49.044;8.716;2023-01-31T15:58:33;99644.59;;;6.46;59.92
25610;BME280;13479;49.044;8.716;2023-01-31T16:01:01;99623.59;;;6.44;59.90
25610;BME280;13479;49.044;8.716;2023-01-31T16:03:29;99633.66;;;6.38;60.12
25610;BME280;13479;49.044;8.716;2023-01-31T16:05:58;99629.72;;;6.45;60.13
25610;BME280;13479;49.044;8.716;2023-01-31T16:08:30;99625.16;;;6.32;60.28
25610;BME280;13479;49.044;8.716;2023-01-31T16:10:59;99639.13;;;6.34;60.77
25610;BME280;13479;49.044;8.716;2023-01-31T16:13:25;99636.66;;;6.31;60.89
25610;BME280;13479;49.044;8.716;2023-01-31T16:15:52;99651.63;;;6.31;60.58
25610;BME280;13479;49.044;8.716;2023-01-31T16:18:18;99667.03;;;6.39;60.08
25610;BME280;13479;49.044;8.716;2023-01-31T16:20:46;99691.19;;;6.31;59.78
25610;BME280;13479;49.044;8.716;2023-01-31T16:23:27;99684.38;;;6.27;60.34
25610;BME280;13479;49.044;8.716;2023-01-31T16:26:07;99680.81;;;6.28;59.81
25610;BME280;13479;49.044;8.716;2023-01-31T16:28:41;99668.50;;;6.28;60.11
25610;BME280;13479;49.044;8.716;2023-01-31T16:31:13;99673.84;;;6.27;60.23
25610;BME280;13479;49.044;8.716;2023-01-31T16:33:57;99685.91;;;6.31;59.87
25610;BME280;13479;49.044;8.716;2023-01-31T16:36:26;99684.31;;;6.28;60.10
25610;BME280;13479;49.044;8.716;2023-01-31T16:39:04;99677.34;;;6.27;60.31
25610;BME280;13479;49.044;8.716;2023-01-31T16:41:37;99674.34;;;6.33;59.90
25610;BME280;13479;49.044;8.716;2023-01-31T16:44:04;99675.19;;;6.34;60.27
25610;BME280;13479;49.044;8.716;2023-01-31T16:46:38;99643.56;;;6.34;60.83
25610;BME280;13479;49.044;8.716;2023-01-31T16:49:06;99669.94;;;6.34;60.31
25610;BME280;13479;49.044;8.716;2023-01-31T16:51:42;99643.34;;;6.37;61.34
25610;BME280;13479;49.044;8.716;2023-01-31T16:56:46;99669.16;;;6.32;60.74
25610;BME280;13479;49.044;8.716;2023-01-31T17:02:29;99658.63;;;6.32;61.58
25610;BME280;13479;49.044;8.716;2023-01-31T17:04:57;99658.88;;;6.27;61.39
25610;BME280;13479;49.044;8.716;2023-01-31T17:07:26;99657.69;;;6.33;61.44
25610;BME280;13479;49.044;8.716;2023-01-31T17:09:57;99659.56;;;6.31;61.67
25610;BME280;13479;49.044;8.716;2023-01-31T17:12:28;99659.00;;;6.40;61.81
25610;BME280;13479;49.044;8.716;2023-01-31T17:14:54;99662.94;;;6.33;62.21
25610;BME280;13479;49.044;8.716;2023-01-31T17:17:32;99675.69;;;6.41;61.45
25610;BME280;13479;49.044;8.716;2023-01-31T17:19:58;99692.47;;;6.40;61.53
25610;BME280;13479;49.044;8.716;2023-01-31T17:22:24;99693.13;;;6.43;61.60
25610;BME280;13479;49.044;8.716;2023-01-31T17:24:49;99689.00;;;6.54;60.91
25610;BME280;13479;49.044;8.716;2023-01-31T17:27:16;99731.50;;;6.49;60.53
25610;BME280;13479;49.044;8.716;2023-01-31T17:29:43;99732.69;;;6.43;60.81
25610;BME280;13479;49.044;8.716;2023-01-31T17:32:12;99725.72;;;6.42;60.85
25610;BME280;13479;49.044;8.716;2023-01-31T17:34:38;99722.22;;;6.42;61.05
25610;BME280;13479;49.044;8.716;2023-01-31T17:37:04;99726.22;;;6.49;60.48
25610;BME280;13479;49.044;8.716;2023-01-31T17:39:29;99734.03;;;6.51;60.50
25610;BME280;13479;49.044;8.716;2023-01-31T17:41:55;99730.81;;;6.45;60.81
25610;BME280;13479;49.044;8.716;2023-01-31T17:44:20;99717.97;;;6.39;61.30
25610;BME280;13479;49.044;8.716;2023-01-31T17:46:46;99712.69;;;6.39;60.69
25610;BME280;13479;49.044;8.716;2023-01-31T17:49:11;99715.16;;;6.42;61.24
25610;BME280;13479;49.044;8.716;2023-01-31T17:51:37;99705.38;;;6.44;60.49
25610;BME280;13479;49.044;8.716;2023-01-31T17:54:02;99721.47;;;6.40;60.48
25610;BME280;13479;49.044;8.716;2023-01-31T17:56:27;99706.47;;;6.40;60.66
25610;BME280;13479;49.044;8.716;2023-01-31T17:58:53;99699.16;;;6.45;60.68
25610;BME280;13479;49.044;8.716;2023-01-31T18:01:18;99718.06;;;6.38;60.43
25610;BME280;13479;49.044;8.716;2023-01-31T18:03:43;99702.50;;;6.33;61.10
25610;BME280;13479;49.044;8.716;2023-01-31T18:06:09;99697.53;;;6.43;60.78
25610;BME280;13479;49.044;8.716;2023-01-31T18:08:35;99698.16;;;6.32;61.26
25610;BME280;13479;49.044;8.716;2023-01-31T18:11:13;99687.84;;;6.43;60.79
25610;BME280;13479;49.044;8.716;2023-01-31T18:13:39;99688.88;;;6.41;60.80
25610;BME280;13479;49.044;8.716;2023-01-31T18:16:07;99685.22;;;6.43;60.77
25610;BME280;13479;49.044;8.716;2023-01-31T18:18:34;99686.47;;;6.36;61.36
25610;BME280;13479;49.044;8.716;2023-01-31T18:20:59;99676.81;;;6.37;60.95
25610;BME280;13479;49.044;8.716;2023-01-31T18:23:26;99676.16;;;6.47;60.82
25610;BME280;13479;49.044;8.716;2023-01-31T18:25:51;99695.22;;;6.53;60.93
25610;BME280;13479;49.044;8.716;2023-01-31T18:28:17;99696.69;;;6.42;60.91
25610;BME280;13479;49.044;8.716;2023-01-31T18:30:42;99686.31;;;6.39;61.46
25610;BME280;13479;49.044;8.716;2023-01-31T18:33:07;99660.31;;;6.33;61.74
25610;BME280;13479;49.044;8.716;2023-01-31T18:35:32;99642.41;;;6.38;61.87
25610;BME280;13479;49.044;8.716;2023-01-31T18:37:58;99647.72;;;6.53;61.10
25610;BME280;13479;49.044;8.716;2023-01-31T18:40:23;99655.44;;;6.41;61.57
25610;BME280;13479;49.044;8.716;2023-01-31T18:42:48;99659.59;;;6.45;61.24
25610;BME280;13479;49.044;8.716;2023-01-31T18:45:14;99641.69;;;6.51;61.20
25610;BME280;13479;49.044;8.716;2023-01-31T18:47:39;99657.53;;;6.51;61.06
25610;BME280;13479;49.044;8.716;2023-01-31T18:50:04;99659.66;;;6.44;61.51
25610;BME280;13479;49.044;8.716;2023-01-31T18:52:30;99645.66;;;6.43;62.05
25610;BME280;13479;49.044;8.716;2023-01-31T18:54:55;99625.81;;;6.36;62.17
25610;BME280;13479;49.044;8.716;2023-01-31T18:57:20;99625.31;;;6.45;61.90
25610;BME280;13479;49.044;8.716;2023-01-31T18:59:46;99628.88;;;6.44;61.85
25610;BME280;13479;49.044;8.716;2023-01-31T19:02:11;99640.25;;;6.45;61.95
25610;BME280;13479;49.044;8.716;2023-01-31T19:04:36;99641.13;;;6.45;62.02
25610;BME280;13479;49.044;8.716;2023-01-31T19:07:02;99648.84;;;6.48;62.12
25610;BME280;13479;49.044;8.716;2023-01-31T19:09:27;99645.94;;;6.53;61.94
25610;BME280;13479;49.044;8.716;2023-01-31T19:11:52;99665.81;;;6.59;61.57
25610;BME280;13479;49.044;8.716;2023-01-31T19:14:18;99648.84;;;6.48;61.90
25610;BME280;13479;49.044;8.716;2023-01-31T19:16:43;99625.97;;;6.49;62.26
25610;BME280;13479;49.044;8.716;2023-01-31T19:19:09;99624.81;;;6.53;62.26
25610;BME280;13479;49.044;8.716;2023-01-31T19:21:36;99631.63;;;6.57;61.83
25610;BME280;13479;49.044;8.716;2023-01-31T19:24:04;99624.16;;;6.49;62.50
25610;BME280;13479;49.044;8.716;2023-01-31T19:26:31;99612.13;;;6.60;62.42
25610;BME280;13479;49.044;8.716;2023-01-31T19:28:57;99639.19;;;6.63;62.17
25610;BME280;13479;49.044;8.716;2023-01-31T19:31:24;99622.88;;;6.57;62.42